sensor_id;sensor_type;location;lat;lon;timestamp;P1;durP1;ratioP1;P2;durP2;ratioP2
18407;SDS011;9330;52.210;21.174;2023-06-19T00:01:41;10.40;;;9.38;;
18407;SDS011;9330;52.210;21.174;2023-06-19T00:04:08;9.20;;;8.30;;
18407;SDS011;9330;52.210;21.174;2023-06-19T00:06:35;9.25;;;8.45;;
18407;SDS011;9330;52.210;21.174;2023-06-19T00:09:02;9.45;;;8.65;;
18407;SDS011;9330;52.210;21.174;2023-06-19T00:11:30;10.15;;;9.05;;
18407;SDS011;9330;52.210;21.174;2023-06-19T00:13:58;9.63;;;8.73;;
18407;SDS011;9330;52.210;21.174;2023-06-19T00:16:26;8.98;;;8.18;;
18407;SDS011;9330;52.210;21.174;2023-06-19T00:18:53;10.13;;;9.13;;
18407;SDS011;9330;52.210;21.174;2023-06-19T00:21:21;9.20;;;8.40;;
18407;SDS011;9330;52.210;21.174;2023-06-19T00:23:48;9.43;;;8.52;;
18407;SDS011;9330;52.210;21.174;2023-06-19T00:26:15;9.27;;;8.38;;
18407;SDS011;9330;52.210;21.174;2023-06-19T00:28:42;9.73;;;8.52;;
18407;SDS011;9330;52.210;21.174;2023-06-19T00:31:11;9.10;;;8.20;;
18407;SDS011;9330;52.210;21.174;2023-06-19T00:33:39;10.27;;;8.57;;
18407;SDS011;9330;52.210;21.174;2023-06-19T00:36:08;10.77;;;8.77;;
18407;SDS011;9330;52.210;21.174;2023-06-19T00:38:35;9.75;;;8.45;;
18407;SDS011;9330;52.210;21.174;2023-06-19T00:41:03;10.50;;;8.40;;
18407;SDS011;9330;52.210;21.174;2023-06-19T00:43:30;9.52;;;8.63;;
18407;SDS011;9330;52.210;21.174;2023-06-19T00:45:57;8.75;;;7.95;;
18407;SDS011;9330;52.210;21.174;2023-06-19T00:48:25;9.07;;;8.23;;
18407;SDS011;9330;52.210;21.174;2023-06-19T00:50:54;9.55;;;8.55;;
18407;SDS011;9330;52.210;21.174;2023-06-19T00:53:22;9.85;;;8.88;;
18407;SDS011;9330;52.210;21.174;2023-06-19T00:55:49;9.82;;;8.88;;
18407;SDS011;9330;52.210;21.174;2023-06-19T00:58:17;9.20;;;8.15;;
18407;SDS011;9330;52.210;21.174;2023-06-19T01:00:45;9.70;;;8.73;;
18407;SDS011;9330;52.210;21.174;2023-06-19T01:03:11;8.63;;;7.82;;
18407;SDS011;9330;52.210;21.174;2023-06-19T01:05:40;10.77;;;8.45;;
18407;SDS011;9330;52.210;21.174;2023-06-19T01:08:08;9.68;;;8.77;;
18407;SDS011;9330;52.210;21.174;2023-06-19T01:10:42;10.45;;;8.52;;
18407;SDS011;9330;52.210;21.174;2023-06-19T01:13:14;9.23;;;8.43;;
18407;SDS011;9330;52.210;21.174;2023-06-19T01:15:45;10.95;;;8.10;;
18407;SDS011;9330;52.210;21.174;2023-06-19T01:18:14;12.65;;;8.63;;
18407;SDS011;9330;52.210;21.174;2023-06-19T01:20:43;9.80;;;8.80;;
18407;SDS011;9330;52.210;21.174;2023-06-19T01:23:11;10.95;;;8.30;;
18407;SDS011;9330;52.210;21.174;2023-06-19T01:25:38;9.32;;;8.52;;
18407;SDS011;9330;52.210;21.174;2023-06-19T01:28:06;9.32;;;8.43;;
18407;SDS011;9330;52.210;21.174;2023-06-19T01:30:35;9.30;;;8.23;;
18407;SDS011;9330;52.210;21.174;2023-06-19T01:33:04;10.18;;;9.18;;
18407;SDS011;9330;52.210;21.174;2023-06-19T01:35:38;10.45;;;8.73;;
18407;SDS011;9330;52.210;21.174;2023-06-19T01:38:07;9.25;;;8.35;;
18407;SDS011;9330;52.210;21.174;2023-06-19T01:40:37;9.60;;;8.65;;
18407;SDS011;9330;52.210;21.174;2023-06-19T01:43:05;8.60;;;7.85;;
18407;SDS011;9330;52.210;21.174;2023-06-19T01:45:33;10.32;;;9.30;;
18407;SDS011;9330;52.210;21.174;2023-06-19T01:48:00;9.20;;;8.32;;
18407;SDS011;9330;52.210;21.174;2023-06-19T01:50:27;10.30;;;9.18;;
18407;SDS011;9330;52.210;21.174;2023-06-19T01:52:54;10.23;;;9.32;;
18407;SDS011;9330;52.210;21.174;2023-06-19T01:55:21;9.27;;;8.48;;
18407;SDS011;9330;52.210;21.174;2023-06-19T01:57:49;8.82;;;8.02;;
18407;SDS011;9330;52.210;21.174;2023-06-19T02:00:16;9.50;;;8.57;;
18407;SDS011;9330;52.210;21.174;2023-06-19T02:02:44;10.02;;;9.02;;
18407;SDS011;9330;52.210;21.174;2023-06-19T02:05:11;9.38;;;8.40;;
18407;SDS011;9330;52.210;21.174;2023-06-19T02:07:38;10.45;;;9.00;;
18407;SDS011;9330;52.210;21.174;2023-06-19T02:10:05;10.13;;;8.82;;
18407;SDS011;9330;52.210;21.174;2023-06-19T02:12:33;9.55;;;8.65;;
18407;SDS011;9330;52.210;21.174;2023-06-19T02:15:01;9.77;;;8.88;;
18407;SDS011;9330;52.210;21.174;2023-06-19T02:17:28;14.00;;;9.48;;
18407;SDS011;9330;52.210;21.174;2023-06-19T02:19:55;11.88;;;8.73;;
18407;SDS011;9330;52.210;21.174;2023-06-19T02:22:23;10.07;;;9.07;;
18407;SDS011;9330;52.210;21.174;2023-06-19T02:24:50;9.25;;;8.45;;
18407;SDS011;9330;52.210;21.174;2023-06-19T02:27:16;9.48;;;8.57;;
18407;SDS011;9330;52.210;21.174;2023-06-19T02:29:43;9.43;;;8.30;;
18407;SDS011;9330;52.210;21.174;2023-06-19T02:32:11;10.52;;;9.50;;
18407;SDS011;9330;52.210;21.174;2023-06-19T02:34:38;10.05;;;8.45;;
18407;SDS011;9330;52.210;21.174;2023-06-19T02:37:05;9.82;;;8.80;;
18407;SDS011;9330;52.210;21.174;2023-06-19T02:39:33;9.32;;;8.48;;
18407;SDS011;9330;52.210;21.174;2023-06-19T02:42:00;11.07;;;9.27;;
18407;SDS011;9330;52.210;21.174;2023-06-19T02:44:27;9.30;;;8.48;;
18407;SDS011;9330;52.210;21.174;2023-06-19T02:46:53;10.23;;;9.27;;
18407;SDS011;9330;52.210;21.174;2023-06-19T02:49:22;9.27;;;8.38;;
18407;SDS011;9330;52.210;21.174;2023-06-19T02:51:48;9.32;;;8.52;;
18407;SDS011;9330;52.210;21.174;2023-06-19T02:54:15;9.77;;;8.85;;
18407;SDS011;9330;52.210;21.174;2023-06-19T02:56:42;9.68;;;8.77;;
18407;SDS011;9330;52.210;21.174;2023-06-19T02:59:09;9.52;;;8.60;;
18407;SDS011;9330;52.210;21.174;2023-06-19T03:01:36;10.23;;;9.18;;
18407;SDS011;9330;52.210;21.174;2023-06-19T03:04:02;10.32;;;9.43;;
18407;SDS011;9330;52.210;21.174;2023-06-19T03:06:31;9.98;;;8.98;;
18407;SDS011;9330;52.210;21.174;2023-06-19T03:09:05;9.35;;;8.55;;
18407;SDS011;9330;52.210;21.174;2023-06-19T03:11:37;10.95;;;9.88;;
18407;SDS011;9330;52.210;21.174;2023-06-19T03:14:04;11.15;;;9.88;;
18407;SDS011;9330;52.210;21.174;2023-06-19T03:16:32;10.60;;;9.68;;
18407;SDS011;9330;52.210;21.174;2023-06-19T03:19:00;11.60;;;9.95;;
18407;SDS011;9330;52.210;21.174;2023-06-19T03:21:27;10.00;;;8.93;;
18407;SDS011;9330;52.210;21.174;2023-06-19T03:23:55;9.20;;;8.38;;
18407;SDS011;9330;52.210;21.174;2023-06-19T03:26:23;10.27;;;9.27;;
18407;SDS011;9330;52.210;21.174;2023-06-19T03:28:50;10.50;;;9.45;;
18407;SDS011;9330;52.210;21.174;2023-06-19T03:31:17;11.18;;;10.18;;
18407;SDS011;9330;52.210;21.174;2023-06-19T03:33:44;10.15;;;9.25;;
18407;SDS011;9330;52.210;21.174;2023-06-19T03:36:11;12.52;;;9.93;;
18407;SDS011;9330;52.210;21.174;2023-06-19T03:38:38;12.23;;;9.45;;
18407;SDS011;9330;52.210;21.174;2023-06-19T03:41:06;10.88;;;9.88;;
18407;SDS011;9330;52.210;21.174;2023-06-19T03:43:33;10.05;;;9.00;;
18407;SDS011;9330;52.210;21.174;2023-06-19T03:46:00;11.20;;;10.10;;
18407;SDS011;9330;52.210;21.174;2023-06-19T03:48:27;12.50;;;9.98;;
18407;SDS011;9330;52.210;21.174;2023-06-19T03:50:54;9.88;;;8.98;;
18407;SDS011;9330;52.210;21.174;2023-06-19T03:53:21;9.48;;;8.57;;
18407;SDS011;9330;52.210;21.174;2023-06-19T03:55:48;9.88;;;8.85;;
18407;SDS011;9330;52.210;21.174;2023-06-19T03:58:16;10.57;;;9.55;;
18407;SDS011;9330;52.210;21.174;2023-06-19T04:00:43;10.63;;;9.63;;
18407;SDS011;9330;52.210;21.174;2023-06-19T04:03:09;10.43;;;9.52;;
18407;SDS011;9330;52.210;21.174;2023-06-19T04:05:36;10.93;;;9.93;;
18407;SDS011;9330;52.210;21.174;2023-06-19T04:08:04;11.90;;;10.70;;
18407;SDS011;9330;52.210;21.174;2023-06-19T04:10:30;11.63;;;10.60;;
18407;SDS011;9330;52.210;21.174;2023-06-19T04:12:57;11.00;;;9.90;;
18407;SDS011;9330;52.210;21.174;2023-06-19T04:15:25;12.02;;;10.93;;
18407;SDS011;9330;52.210;21.174;2023-06-19T04:17:52;10.70;;;9.80;;
18407;SDS011;9330;52.210;21.174;2023-06-19T04:20:19;11.85;;;10.82;;
18407;SDS011;9330;52.210;21.174;2023-06-19T04:22:46;11.57;;;10.55;;
18407;SDS011;9330;52.210;21.174;2023-06-19T04:25:13;11.40;;;10.38;;
18407;SDS011;9330;52.210;21.174;2023-06-19T04:27:40;11.75;;;10.73;;
18407;SDS011;9330;52.210;21.174;2023-06-19T04:30:10;12.88;;;11.57;;
18407;SDS011;9330;52.210;21.174;2023-06-19T04:32:39;13.98;;;12.65;;
18407;SDS011;9330;52.210;21.174;2023-06-19T04:35:06;13.43;;;12.13;;
18407;SDS011;9330;52.210;21.174;2023-06-19T04:37:33;11.82;;;10.73;;
18407;SDS011;9330;52.210;21.174;2023-06-19T04:40:01;11.40;;;10.32;;
18407;SDS011;9330;52.210;21.174;2023-06-19T04:42:28;11.95;;;10.95;;
18407;SDS011;9330;52.210;21.174;2023-06-19T04:44:55;12.98;;;11.77;;
18407;SDS011;9330;52.210;21.174;2023-06-19T04:47:24;12.50;;;11.40;;
18407;SDS011;9330;52.210;21.174;2023-06-19T04:49:53;12.25;;;11.15;;
18407;SDS011;9330;52.210;21.174;2023-06-19T04:52:20;12.52;;;11.43;;
18407;SDS011;9330;52.210;21.174;2023-06-19T04:54:48;11.95;;;10.73;;
18407;SDS011;9330;52.210;21.174;2023-06-19T04:57:15;12.70;;;11.40;;
18407;SDS011;9330;52.210;21.174;2023-06-19T04:59:42;11.90;;;10.90;;
18407;SDS011;9330;52.210;21.174;2023-06-19T05:02:09;11.23;;;10.23;;
18407;SDS011;9330;52.210;21.174;2023-06-19T05:04:36;11.93;;;10.93;;
18407;SDS011;9330;52.210;21.174;2023-06-19T05:07:05;11.20;;;10.15;;
18407;SDS011;9330;52.210;21.174;2023-06-19T05:09:32;11.13;;;10.02;;
18407;SDS011;9330;52.210;21.174;2023-06-19T05:11:59;10.70;;;9.70;;
18407;SDS011;9330;52.210;21.174;2023-06-19T05:14:26;11.57;;;10.48;;
18407;SDS011;9330;52.210;21.174;2023-06-19T05:16:53;11.30;;;10.25;;
18407;SDS011;9330;52.210;21.174;2023-06-19T05:19:20;10.68;;;9.77;;
18407;SDS011;9330;52.210;21.174;2023-06-19T05:21:47;10.68;;;9.68;;
18407;SDS011;9330;52.210;21.174;2023-06-19T05:24:17;12.52;;;9.27;;
18407;SDS011;9330;52.210;21.174;2023-06-19T05:26:44;9.60;;;8.70;;
18407;SDS011;9330;52.210;21.174;2023-06-19T05:29:10;11.18;;;10.07;;
18407;SDS011;9330;52.210;21.174;2023-06-19T05:31:37;9.82;;;8.75;;
18407;SDS011;9330;52.210;21.174;2023-06-19T05:34:04;9.20;;;8.40;;
18407;SDS011;9330;52.210;21.174;2023-06-19T05:36:31;11.40;;;10.30;;
18407;SDS011;9330;52.210;21.174;2023-06-19T05:38:58;9.63;;;8.82;;
18407;SDS011;9330;52.210;21.174;2023-06-19T05:41:26;10.00;;;9.07;;
18407;SDS011;9330;52.210;21.174;2023-06-19T05:43:53;9.60;;;8.60;;
18407;SDS011;9330;52.210;21.174;2023-06-19T05:46:20;9.05;;;8.23;;
18407;SDS011;9330;52.210;21.174;2023-06-19T05:48:47;9.27;;;8.45;;
18407;SDS011;9330;52.210;21.174;2023-06-19T05:51:14;8.60;;;7.80;;
18407;SDS011;9330;52.210;21.174;2023-06-19T05:53:40;8.82;;;8.05;;
18407;SDS011;9330;52.210;21.174;2023-06-19T05:56:08;7.88;;;7.18;;
18407;SDS011;9330;52.210;21.174;2023-06-19T05:58:36;8.82;;;7.43;;
18407;SDS011;9330;52.210;21.174;2023-06-19T06:01:03;7.50;;;6.80;;
18407;SDS011;9330;52.210;21.174;2023-06-19T06:03:31;9.18;;;7.38;;
18407;SDS011;9330;52.210;21.174;2023-06-19T06:05:58;7.32;;;6.68;;
18407;SDS011;9330;52.210;21.174;2023-06-19T06:08:28;8.25;;;7.55;;
18407;SDS011;9330;52.210;21.174;2023-06-19T06:10:55;8.63;;;7.68;;
18407;SDS011;9330;52.210;21.174;2023-06-19T06:13:21;8.27;;;7.47;;
18407;SDS011;9330;52.210;21.174;2023-06-19T06:15:50;7.47;;;6.85;;
18407;SDS011;9330;52.210;21.174;2023-06-19T06:18:16;7.88;;;7.18;;
18407;SDS011;9330;52.210;21.174;2023-06-19T06:20:43;7.57;;;6.97;;
18407;SDS011;9330;52.210;21.174;2023-06-19T06:23:10;7.95;;;7.18;;
18407;SDS011;9330;52.210;21.174;2023-06-19T06:25:37;6.53;;;5.93;;
18407;SDS011;9330;52.210;21.174;2023-06-19T06:28:04;7.13;;;6.43;;
18407;SDS011;9330;52.210;21.174;2023-06-19T06:30:31;6.95;;;6.35;;
18407;SDS011;9330;52.210;21.174;2023-06-19T06:32:59;10.18;;;8.90;;
18407;SDS011;9330;52.210;21.174;2023-06-19T06:35:26;7.55;;;6.85;;
18407;SDS011;9330;52.210;21.174;2023-06-19T06:37:53;7.47;;;6.78;;
18407;SDS011;9330;52.210;21.174;2023-06-19T06:40:20;6.57;;;5.88;;
18407;SDS011;9330;52.210;21.174;2023-06-19T06:42:47;5.60;;;5.10;;
18407;SDS011;9330;52.210;21.174;2023-06-19T06:45:14;6.00;;;5.40;;
18407;SDS011;9330;52.210;21.174;2023-06-19T06:47:41;5.80;;;5.20;;
18407;SDS011;9330;52.210;21.174;2023-06-19T06:50:09;6.53;;;6.03;;
18407;SDS011;9330;52.210;21.174;2023-06-19T06:52:36;6.55;;;5.93;;
18407;SDS011;9330;52.210;21.174;2023-06-19T06:55:03;11.70;;;10.75;;
18407;SDS011;9330;52.210;21.174;2023-06-19T06:57:31;7.22;;;6.60;;
18407;SDS011;9330;52.210;21.174;2023-06-19T06:59:57;6.65;;;5.63;;
18407;SDS011;9330;52.210;21.174;2023-06-19T07:02:24;7.55;;;5.68;;
18407;SDS011;9330;52.210;21.174;2023-06-19T07:04:51;6.28;;;5.78;;
18407;SDS011;9330;52.210;21.174;2023-06-19T07:07:19;5.38;;;4.88;;
18407;SDS011;9330;52.210;21.174;2023-06-19T07:09:46;6.47;;;5.70;;
18407;SDS011;9330;52.210;21.174;2023-06-19T07:12:13;6.85;;;6.25;;
18407;SDS011;9330;52.210;21.174;2023-06-19T07:14:40;5.45;;;5.05;;
18407;SDS011;9330;52.210;21.174;2023-06-19T07:17:07;6.28;;;5.75;;
18407;SDS011;9330;52.210;21.174;2023-06-19T07:19:34;5.40;;;5.00;;
18407;SDS011;9330;52.210;21.174;2023-06-19T07:22:01;5.68;;;5.10;;
18407;SDS011;9330;52.210;21.174;2023-06-19T07:24:29;6.05;;;5.55;;
18407;SDS011;9330;52.210;21.174;2023-06-19T07:26:56;5.50;;;5.00;;
18407;SDS011;9330;52.210;21.174;2023-06-19T07:29:23;5.85;;;5.32;;
18407;SDS011;9330;52.210;21.174;2023-06-19T07:31:50;6.07;;;5.57;;
18407;SDS011;9330;52.210;21.174;2023-06-19T07:34:17;5.68;;;5.18;;
18407;SDS011;9330;52.210;21.174;2023-06-19T07:36:44;6.03;;;5.43;;
18407;SDS011;9330;52.210;21.174;2023-06-19T07:39:11;5.40;;;5.00;;
18407;SDS011;9330;52.210;21.174;2023-06-19T07:41:39;5.50;;;5.00;;
18407;SDS011;9330;52.210;21.174;2023-06-19T07:44:06;5.80;;;5.40;;
18407;SDS011;9330;52.210;21.174;2023-06-19T07:46:33;5.20;;;4.80;;
18407;SDS011;9330;52.210;21.174;2023-06-19T07:49:00;6.03;;;5.53;;
18407;SDS011;9330;52.210;21.174;2023-06-19T07:51:27;5.72;;;5.22;;
18407;SDS011;9330;52.210;21.174;2023-06-19T07:53:54;5.72;;;5.22;;
18407;SDS011;9330;52.210;21.174;2023-06-19T07:56:21;5.65;;;5.22;;
18407;SDS011;9330;52.210;21.174;2023-06-19T07:58:50;5.38;;;4.88;;
18407;SDS011;9330;52.210;21.174;2023-06-19T08:01:17;5.43;;;4.93;;
18407;SDS011;9330;52.210;21.174;2023-06-19T08:03:44;6.75;;;6.05;;
18407;SDS011;9330;52.210;21.174;2023-06-19T08:06:11;6.00;;;5.40;;
18407;SDS011;9330;52.210;21.174;2023-06-19T08:08:38;5.57;;;4.85;;
18407;SDS011;9330;52.210;21.174;2023-06-19T08:11:05;5.35;;;4.93;;
18407;SDS011;9330;52.210;21.174;2023-06-19T08:13:32;6.03;;;5.03;;
18407;SDS011;9330;52.210;21.174;2023-06-19T08:16:00;5.63;;;5.15;;
18407;SDS011;9330;52.210;21.174;2023-06-19T08:18:27;5.70;;;5.20;;
18407;SDS011;9330;52.210;21.174;2023-06-19T08:20:54;5.85;;;5.32;;
18407;SDS011;9330;52.210;21.174;2023-06-19T08:23:21;5.93;;;5.30;;
18407;SDS011;9330;52.210;21.174;2023-06-19T08:25:48;6.13;;;5.57;;
18407;SDS011;9330;52.210;21.174;2023-06-19T08:28:16;5.80;;;5.30;;
18407;SDS011;9330;52.210;21.174;2023-06-19T08:30:44;5.80;;;5.30;;
18407;SDS011;9330;52.210;21.174;2023-06-19T08:33:13;5.20;;;4.80;;
18407;SDS011;9330;52.210;21.174;2023-06-19T08:35:40;5.53;;;5.10;;
18407;SDS011;9330;52.210;21.174;2023-06-19T08:38:07;5.72;;;5.22;;
18407;SDS011;9330;52.210;21.174;2023-06-19T08:40:34;5.15;;;4.75;;
18407;SDS011;9330;52.210;21.174;2023-06-19T08:43:01;5.57;;;4.90;;
18407;SDS011;9330;52.210;21.174;2023-06-19T08:45:28;5.55;;;5.15;;
18407;SDS011;9330;52.210;21.174;2023-06-19T08:47:57;5.38;;;4.97;;
18407;SDS011;9330;52.210;21.174;2023-06-19T08:50:26;5.18;;;4.78;;
18407;SDS011;9330;52.210;21.174;2023-06-19T08:52:54;5.43;;;4.93;;
18407;SDS011;9330;52.210;21.174;2023-06-19T08:55:21;5.03;;;4.63;;
18407;SDS011;9330;52.210;21.174;2023-06-19T08:57:48;6.03;;;4.40;;
18407;SDS011;9330;52.210;21.174;2023-06-19T09:00:22;5.22;;;4.70;;
18407;SDS011;9330;52.210;21.174;2023-06-19T09:02:50;5.20;;;4.80;;
18407;SDS011;9330;52.210;21.174;2023-06-19T09:05:18;6.07;;;5.10;;
18407;SDS011;9330;52.210;21.174;2023-06-19T09:07:55;6.50;;;4.55;;
18407;SDS011;9330;52.210;21.174;2023-06-19T09:10:23;4.85;;;4.47;;
18407;SDS011;9330;52.210;21.174;2023-06-19T09:12:57;5.68;;;5.00;;
18407;SDS011;9330;52.210;21.174;2023-06-19T09:15:27;5.35;;;4.88;;
18407;SDS011;9330;52.210;21.174;2023-06-19T09:18:02;5.75;;;5.25;;
18407;SDS011;9330;52.210;21.174;2023-06-19T09:20:29;5.13;;;4.68;;
18407;SDS011;9330;52.210;21.174;2023-06-19T09:22:58;5.20;;;4.70;;
18407;SDS011;9330;52.210;21.174;2023-06-19T09:25:25;5.78;;;5.15;;
18407;SDS011;9330;52.210;21.174;2023-06-19T09:27:52;4.97;;;4.57;;
18407;SDS011;9330;52.210;21.174;2023-06-19T09:30:20;4.70;;;4.30;;
18407;SDS011;9330;52.210;21.174;2023-06-19T09:32:47;5.07;;;4.68;;
18407;SDS011;9330;52.210;21.174;2023-06-19T09:35:14;6.00;;;5.38;;
18407;SDS011;9330;52.210;21.174;2023-06-19T09:37:41;6.72;;;5.97;;
18407;SDS011;9330;52.210;21.174;2023-06-19T09:40:10;5.63;;;5.03;;
18407;SDS011;9330;52.210;21.174;2023-06-19T09:42:37;4.85;;;4.45;;
18407;SDS011;9330;52.210;21.174;2023-06-19T09:45:06;5.40;;;5.00;;
18407;SDS011;9330;52.210;21.174;2023-06-19T09:47:35;4.80;;;4.50;;
18407;SDS011;9330;52.210;21.174;2023-06-19T09:50:03;5.90;;;5.32;;
18407;SDS011;9330;52.210;21.174;2023-06-19T09:52:32;5.30;;;4.90;;
18407;SDS011;9330;52.210;21.174;2023-06-19T09:55:01;4.90;;;4.50;;
18407;SDS011;9330;52.210;21.174;2023-06-19T09:57:30;6.13;;;4.80;;
18407;SDS011;9330;52.210;21.174;2023-06-19T09:59:58;5.88;;;4.95;;
18407;SDS011;9330;52.210;21.174;2023-06-19T10:02:33;5.10;;;4.65;;
18407;SDS011;9330;52.210;21.174;2023-06-19T10:05:03;6.28;;;4.90;;
18407;SDS011;9330;52.210;21.174;2023-06-19T10:07:32;7.10;;;5.15;;
18407;SDS011;9330;52.210;21.174;2023-06-19T10:10:01;5.40;;;4.90;;
18407;SDS011;9330;52.210;21.174;2023-06-19T10:12:36;6.05;;;5.55;;
18407;SDS011;9330;52.210;21.174;2023-06-19T10:17:53;4.65;;;4.25;;
18407;SDS011;9330;52.210;21.174;2023-06-19T10:20:27;7.38;;;4.93;;
18407;SDS011;9330;52.210;21.174;2023-06-19T10:22:58;4.93;;;4.53;;
18407;SDS011;9330;52.210;21.174;2023-06-19T10:25:28;5.88;;;5.25;;
18407;SDS011;9330;52.210;21.174;2023-06-19T10:27:58;5.65;;;5.05;;
18407;SDS011;9330;52.210;21.174;2023-06-19T10:30:26;5.32;;;4.93;;
18407;SDS011;9330;52.210;21.174;2023-06-19T10:32:54;4.95;;;4.55;;
18407;SDS011;9330;52.210;21.174;2023-06-19T10:35:21;5.05;;;4.55;;
18407;SDS011;9330;52.210;21.174;2023-06-19T10:37:51;5.35;;;4.80;;
18407;SDS011;9330;52.210;21.174;2023-06-19T10:40:18;5.00;;;4.60;;
18407;SDS011;9330;52.210;21.174;2023-06-19T10:42:45;5.50;;;5.00;;
18407;SDS011;9330;52.210;21.174;2023-06-19T10:45:13;5.13;;;4.18;;
18407;SDS011;9330;52.210;21.174;2023-06-19T10:47:42;7.57;;;5.43;;
18407;SDS011;9330;52.210;21.174;2023-06-19T10:50:10;6.45;;;6.03;;
18407;SDS011;9330;52.210;21.174;2023-06-19T10:52:41;6.60;;;5.22;;
18407;SDS011;9330;52.210;21.174;2023-06-19T10:55:09;5.30;;;4.80;;
18407;SDS011;9330;52.210;21.174;2023-06-19T10:57:36;5.32;;;4.82;;
18407;SDS011;9330;52.210;21.174;2023-06-19T11:00:04;4.53;;;4.18;;
18407;SDS011;9330;52.210;21.174;2023-06-19T11:02:38;4.80;;;4.40;;
18407;SDS011;9330;52.210;21.174;2023-06-19T11:05:08;5.78;;;5.28;;
18407;SDS011;9330;52.210;21.174;2023-06-19T11:07:35;5.15;;;4.25;;
18407;SDS011;9330;52.210;21.174;2023-06-19T11:10:02;4.35;;;3.92;;
18407;SDS011;9330;52.210;21.174;2023-06-19T11:12:30;6.30;;;5.32;;
18407;SDS011;9330;52.210;21.174;2023-06-19T11:14:58;6.72;;;6.07;;
18407;SDS011;9330;52.210;21.174;2023-06-19T11:17:25;6.75;;;4.78;;
18407;SDS011;9330;52.210;21.174;2023-06-19T11:19:53;5.25;;;4.85;;
18407;SDS011;9330;52.210;21.174;2023-06-19T11:22:33;4.78;;;4.28;;
18407;SDS011;9330;52.210;21.174;2023-06-19T11:25:02;5.72;;;5.22;;
18407;SDS011;9330;52.210;21.174;2023-06-19T11:27:30;4.82;;;4.32;;
18407;SDS011;9330;52.210;21.174;2023-06-19T11:29:57;5.05;;;4.53;;
18407;SDS011;9330;52.210;21.174;2023-06-19T11:32:29;5.25;;;4.85;;
18407;SDS011;9330;52.210;21.174;2023-06-19T11:35:03;4.75;;;4.05;;
18407;SDS011;9330;52.210;21.174;2023-06-19T11:37:32;4.88;;;4.35;;
18407;SDS011;9330;52.210;21.174;2023-06-19T11:39:59;4.93;;;4.40;;
18407;SDS011;9330;52.210;21.174;2023-06-19T11:42:28;4.82;;;4.43;;
18407;SDS011;9330;52.210;21.174;2023-06-19T11:44:57;4.50;;;4.10;;
18407;SDS011;9330;52.210;21.174;2023-06-19T11:47:29;5.25;;;4.70;;
18407;SDS011;9330;52.210;21.174;2023-06-19T11:49:57;4.65;;;4.25;;
18407;SDS011;9330;52.210;21.174;2023-06-19T11:52:26;5.95;;;4.60;;
18407;SDS011;9330;52.210;21.174;2023-06-19T11:54:53;3.88;;;3.58;;
18407;SDS011;9330;52.210;21.174;2023-06-19T11:57:19;5.20;;;4.00;;
18407;SDS011;9330;52.210;21.174;2023-06-19T11:59:46;4.97;;;4.10;;
18407;SDS011;9330;52.210;21.174;2023-06-19T12:02:13;4.20;;;3.90;;
18407;SDS011;9330;52.210;21.174;2023-06-19T12:04:40;4.20;;;3.80;;
18407;SDS011;9330;52.210;21.174;2023-06-19T12:07:08;4.60;;;3.90;;
18407;SDS011;9330;52.210;21.174;2023-06-19T12:09:36;3.78;;;3.47;;
18407;SDS011;9330;52.210;21.174;2023-06-19T12:12:04;4.82;;;4.43;;
18407;SDS011;9330;52.210;21.174;2023-06-19T12:14:32;4.10;;;3.70;;
18407;SDS011;9330;52.210;21.174;2023-06-19T12:16:59;3.85;;;3.45;;
18407;SDS011;9330;52.210;21.174;2023-06-19T12:19:26;3.95;;;3.60;;
18407;SDS011;9330;52.210;21.174;2023-06-19T12:21:53;4.03;;;3.30;;
18407;SDS011;9330;52.210;21.174;2023-06-19T12:24:21;3.95;;;3.60;;
18407;SDS011;9330;52.210;21.174;2023-06-19T12:26:48;3.90;;;3.60;;
18407;SDS011;9330;52.210;21.174;2023-06-19T12:29:15;3.60;;;3.30;;
18407;SDS011;9330;52.210;21.174;2023-06-19T12:31:43;3.65;;;3.30;;
18407;SDS011;9330;52.210;21.174;2023-06-19T12:34:10;4.20;;;3.67;;
18407;SDS011;9330;52.210;21.174;2023-06-19T12:36:36;3.67;;;3.30;;
18407;SDS011;9330;52.210;21.174;2023-06-19T12:39:03;3.88;;;3.17;;
18407;SDS011;9330;52.210;21.174;2023-06-19T12:41:41;3.58;;;3.28;;
18407;SDS011;9330;52.210;21.174;2023-06-19T12:44:07;3.75;;;3.45;;
18407;SDS011;9330;52.210;21.174;2023-06-19T12:46:34;3.45;;;3.10;;
18407;SDS011;9330;52.210;21.174;2023-06-19T12:49:01;3.80;;;3.50;;
18407;SDS011;9330;52.210;21.174;2023-06-19T12:51:28;3.70;;;3.40;;
18407;SDS011;9330;52.210;21.174;2023-06-19T12:53:55;4.47;;;3.67;;
18407;SDS011;9330;52.210;21.174;2023-06-19T12:56:22;4.10;;;3.80;;
18407;SDS011;9330;52.210;21.174;2023-06-19T12:58:50;3.60;;;3.30;;
18407;SDS011;9330;52.210;21.174;2023-06-19T13:01:17;3.95;;;3.65;;
18407;SDS011;9330;52.210;21.174;2023-06-19T13:03:44;3.80;;;3.50;;
18407;SDS011;9330;52.210;21.174;2023-06-19T13:06:10;3.80;;;3.50;;
18407;SDS011;9330;52.210;21.174;2023-06-19T13:08:37;3.80;;;3.50;;
18407;SDS011;9330;52.210;21.174;2023-06-19T13:11:04;4.05;;;3.65;;
18407;SDS011;9330;52.210;21.174;2023-06-19T13:13:31;4.45;;;4.05;;
18407;SDS011;9330;52.210;21.174;2023-06-19T13:15:59;4.18;;;3.88;;
18407;SDS011;9330;52.210;21.174;2023-06-19T13:18:26;4.25;;;3.80;;
18407;SDS011;9330;52.210;21.174;2023-06-19T13:20:52;4.43;;;4.03;;
18407;SDS011;9330;52.210;21.174;2023-06-19T13:23:19;3.55;;;3.25;;
18407;SDS011;9330;52.210;21.174;2023-06-19T13:25:46;6.32;;;4.10;;
18407;SDS011;9330;52.210;21.174;2023-06-19T13:28:13;4.35;;;4.05;;
18407;SDS011;9330;52.210;21.174;2023-06-19T13:30:40;5.78;;;4.05;;
18407;SDS011;9330;52.210;21.174;2023-06-19T13:33:08;3.88;;;3.55;;
18407;SDS011;9330;52.210;21.174;2023-06-19T13:35:36;3.85;;;3.55;;
18407;SDS011;9330;52.210;21.174;2023-06-19T13:38:03;5.05;;;3.75;;
18407;SDS011;9330;52.210;21.174;2023-06-19T13:40:29;4.00;;;3.60;;
18407;SDS011;9330;52.210;21.174;2023-06-19T13:42:56;5.13;;;3.63;;
18407;SDS011;9330;52.210;21.174;2023-06-19T13:45:24;4.50;;;3.88;;
18407;SDS011;9330;52.210;21.174;2023-06-19T13:47:51;4.00;;;3.70;;
18407;SDS011;9330;52.210;21.174;2023-06-19T13:50:19;5.18;;;3.88;;
18407;SDS011;9330;52.210;21.174;2023-06-19T13:52:46;4.10;;;3.70;;
18407;SDS011;9330;52.210;21.174;2023-06-19T13:55:13;3.67;;;3.42;;
18407;SDS011;9330;52.210;21.174;2023-06-19T13:57:40;4.28;;;3.90;;
18407;SDS011;9330;52.210;21.174;2023-06-19T14:00:08;4.75;;;4.18;;
18407;SDS011;9330;52.210;21.174;2023-06-19T14:02:37;4.10;;;3.80;;
18407;SDS011;9330;52.210;21.174;2023-06-19T14:05:04;5.15;;;4.07;;
18407;SDS011;9330;52.210;21.174;2023-06-19T14:07:33;3.88;;;3.58;;
18407;SDS011;9330;52.210;21.174;2023-06-19T14:10:01;4.20;;;3.80;;
18407;SDS011;9330;52.210;21.174;2023-06-19T14:12:29;3.95;;;3.65;;
18407;SDS011;9330;52.210;21.174;2023-06-19T14:14:56;4.05;;;3.70;;
18407;SDS011;9330;52.210;21.174;2023-06-19T14:17:22;3.95;;;3.60;;
18407;SDS011;9330;52.210;21.174;2023-06-19T14:19:49;4.75;;;4.15;;
18407;SDS011;9330;52.210;21.174;2023-06-19T14:22:16;4.35;;;3.60;;
18407;SDS011;9330;52.210;21.174;2023-06-19T14:24:44;5.13;;;4.50;;
18407;SDS011;9330;52.210;21.174;2023-06-19T14:27:11;4.72;;;3.60;;
18407;SDS011;9330;52.210;21.174;2023-06-19T14:29:38;4.20;;;3.78;;
18407;SDS011;9330;52.210;21.174;2023-06-19T14:32:05;4.05;;;3.75;;
18407;SDS011;9330;52.210;21.174;2023-06-19T14:34:32;4.00;;;3.60;;
18407;SDS011;9330;52.210;21.174;2023-06-19T14:36:59;4.20;;;3.80;;
18407;SDS011;9330;52.210;21.174;2023-06-19T14:39:26;4.68;;;4.05;;
18407;SDS011;9330;52.210;21.174;2023-06-19T14:41:54;3.78;;;3.47;;
18407;SDS011;9330;52.210;21.174;2023-06-19T14:44:21;3.95;;;3.65;;
18407;SDS011;9330;52.210;21.174;2023-06-19T14:46:48;4.20;;;3.78;;
18407;SDS011;9330;52.210;21.174;2023-06-19T14:49:14;5.00;;;4.00;;